sensor_id;sensor_type;location;lat;lon;timestamp;temperature;humidity
19781;DHT22;10050;55.492;13.506;2022-10-22T00:02:12;12.00;99.90
19781;DHT22;10050;55.492;13.506;2022-10-22T00:04:40;12.00;99.90
19781;DHT22;10050;55.492;13.506;2022-10-22T00:07:06;12.00;99.90
19781;DHT22;10050;55.492;13.506;2022-10-22T00:09:32;12.00;99.90
19781;DHT22;10050;55.492;13.506;2022-10-22T00:11:57;12.00;99.90
19781;DHT22;10050;55.492;13.506;2022-10-22T00:14:23;12.00;99.90
19781;DHT22;10050;55.492;13.506;2022-10-22T00:16:49;12.00;99.90
19781;DHT22;10050;55.492;13.506;2022-10-22T00:19:14;12.00;99.90
19781;DHT22;10050;55.492;13.506;2022-10-22T00:21:40;12.00;99.90
19781;DHT22;10050;55.492;13.506;2022-10-22T00:24:06;12.00;99.90
19781;DHT22;10050;55.492;13.506;2022-10-22T00:26:32;12.00;99.90
19781;DHT22;10050;55.492;13.506;2022-10-22T00:28:57;12.10;99.90
19781;DHT22;10050;55.492;13.506;2022-10-22T00:31:23;12.10;99.90
19781;DHT22;10050;55.492;13.506;2022-10-22T00:33:48;12.10;99.90
19781;DHT22;10050;55.492;13.506;2022-10-22T00:36:15;12.10;99.90
19781;DHT22;10050;55.492;13.506;2022-10-22T00:38:41;12.10;99.90
19781;DHT22;10050;55.492;13.506;2022-10-22T00:41:07;12.10;99.90
19781;DHT22;10050;55.492;13.506;2022-10-22T00:43:33;12.10;99.90
19781;DHT22;10050;55.492;13.506;2022-10-22T00:46:17;12.10;99.90
19781;DHT22;10050;55.492;13.506;2022-10-22T00:48:42;12.10;99.90
19781;DHT22;10050;55.492;13.506;2022-10-22T00:51:08;12.10;99.90
19781;DHT22;10050;55.492;13.506;2022-10-22T00:53:37;12.10;99.90
19781;DHT22;10050;55.492;13.506;2022-10-22T00:56:04;12.10;99.90
19781;DHT22;10050;55.492;13.506;2022-10-22T00:58:36;12.00;99.90
19781;DHT22;10050;55.492;13.506;2022-10-22T01:01:04;12.00;99.90
19781;DHT22;10050;55.492;13.506;2022-10-22T01:03:31;12.00;99.90
19781;DHT22;10050;55.492;13.506;2022-10-22T01:05:59;12.00;99.90
19781;DHT22;10050;55.492;13.506;2022-10-22T01:11:27;12.10;99.90
19781;DHT22;10050;55.492;13.506;2022-10-22T01:14:00;12.10;99.90
19781;DHT22;10050;55.492;13.506;2022-10-22T01:22:06;12.10;99.90
19781;DHT22;10050;55.492;13.506;2022-10-22T01:24:49;12.10;99.90
19781;DHT22;10050;55.492;13.506;2022-10-22T01:27:41;12.10;99.90
19781;DHT22;10050;55.492;13.506;2022-10-22T01:30:09;12.10;99.90
19781;DHT22;10050;55.492;13.506;2022-10-22T01:32:40;12.10;99.90
19781;DHT22;10050;55.492;13.506;2022-10-22T01:35:11;12.10;99.90
19781;DHT22;10050;55.492;13.506;2022-10-22T01:37:45;12.10;99.90
19781;DHT22;10050;55.492;13.506;2022-10-22T01:40:13;12.20;99.90
19781;DHT22;10050;55.492;13.506;2022-10-22T01:42:39;12.20;99.90
19781;DHT22;10050;55.492;13.506;2022-10-22T01:45:12;12.20;99.90
19781;DHT22;10050;55.492;13.506;2022-10-22T01:50:22;12.20;99.90
19781;DHT22;10050;55.492;13.506;2022-10-22T01:56:03;12.20;99.90
19781;DHT22;10050;55.492;13.506;2022-10-22T01:58:56;12.20;99.90
19781;DHT22;10050;55.492;13.506;2022-10-22T02:04:43;12.10;99.90
19781;DHT22;10050;55.492;13.506;2022-10-22T02:07:14;12.10;99.90
19781;DHT22;10050;55.492;13.506;2022-10-22T02:09:40;12.10;99.90
19781;DHT22;10050;55.492;13.506;2022-10-22T02:12:08;12.10;99.90
19781;DHT22;10050;55.492;13.506;2022-10-22T02:14:38;12.10;99.90
19781;DHT22;10050;55.492;13.506;2022-10-22T02:17:08;12.20;99.90
19781;DHT22;10050;55.492;13.506;2022-10-22T02:22:06;12.10;99.90
19781;DHT22;10050;55.492;13.506;2022-10-22T02:24:32;12.10;99.90
19781;DHT22;10050;55.492;13.506;2022-10-22T02:30:05;12.10;99.90
19781;DHT22;10050;55.492;13.506;2022-10-22T02:33:06;12.00;99.90
19781;DHT22;10050;55.492;13.506;2022-10-22T02:35:33;12.00;99.90
19781;DHT22;10050;55.492;13.506;2022-10-22T02:38:00;11.90;99.90
19781;DHT22;10050;55.492;13.506;2022-10-22T02:40:27;12.00;99.90
19781;DHT22;10050;55.492;13.506;2022-10-22T02:42:54;12.00;99.90
19781;DHT22;10050;55.492;13.506;2022-10-22T02:45:20;12.00;99.90
19781;DHT22;10050;55.492;13.506;2022-10-22T02:47:46;12.00;99.90
19781;DHT22;10050;55.492;13.506;2022-10-22T02:50:12;12.00;99.90
19781;DHT22;10050;55.492;13.506;2022-10-22T02:52:38;12.00;99.90
19781;DHT22;10050;55.492;13.506;2022-10-22T02:55:05;12.10;99.90
19781;DHT22;10050;55.492;13.506;2022-10-22T02:57:31;12.10;99.90
19781;DHT22;10050;55.492;13.506;2022-10-22T02:59:57;12.10;99.90
19781;DHT22;10050;55.492;13.506;2022-10-22T03:02:22;12.10;99.90
19781;DHT22;10050;55.492;13.506;2022-10-22T03:04:48;12.20;99.90
19781;DHT22;10050;55.492;13.506;2022-10-22T03:07:14;12.20;99.90
19781;DHT22;10050;55.492;13.506;2022-10-22T03:09:39;12.20;99.90
19781;DHT22;10050;55.492;13.506;2022-10-22T03:12:05;12.20;99.90
19781;DHT22;10050;55.492;13.506;2022-10-22T03:14:33;12.20;99.90
19781;DHT22;10050;55.492;13.506;2022-10-22T03:16:59;12.20;99.90
19781;DHT22;10050;55.492;13.506;2022-10-22T03:19:24;12.20;99.90
19781;DHT22;10050;55.492;13.506;2022-10-22T03:22:01;12.20;99.90
19781;DHT22;10050;55.492;13.506;2022-10-22T03:24:34;12.20;99.90
19781;DHT22;10050;55.492;13.506;2022-10-22T03:27:00;12.20;99.90
19781;DHT22;10050;55.492;13.506;2022-10-22T03:29:26;12.20;99.90
19781;DHT22;10050;55.492;13.506;2022-10-22T03:31:53;12.20;99.90
19781;DHT22;10050;55.492;13.506;2022-10-22T03:34:19;12.20;99.90
19781;DHT22;10050;55.492;13.506;2022-10-22T03:36:45;12.20;99.90
19781;DHT22;10050;55.492;13.506;2022-10-22T03:39:13;12.20;99.90
19781;DHT22;10050;55.492;13.506;2022-10-22T03:41:39;12.20;99.90
19781;DHT22;10050;55.492;13.506;2022-10-22T03:44:06;12.30;99.90
19781;DHT22;10050;55.492;13.506;2022-10-22T03:46:32;12.30;99.90
19781;DHT22;10050;55.492;13.506;2022-10-22T03:48:57;12.30;99.90
19781;DHT22;10050;55.492;13.506;2022-10-22T03:51:25;12.30;99.90
19781;DHT22;10050;55.492;13.506;2022-10-22T03:53:51;12.30;99.90
19781;DHT22;10050;55.492;13.506;2022-10-22T03:56:17;12.30;99.90
19781;DHT22;10050;55.492;13.506;2022-10-22T03:58:42;12.20;99.90
19781;DHT22;10050;55.492;13.506;2022-10-22T04:01:10;12.30;99.90
19781;DHT22;10050;55.492;13.506;2022-10-22T04:03:36;12.30;99.90
19781;DHT22;10050;55.492;13.506;2022-10-22T04:06:10;12.30;99.90
19781;DHT22;10050;55.492;13.506;2022-10-22T04:08:38;12.30;99.90
19781;DHT22;10050;55.492;13.506;2022-10-22T04:11:05;12.30;99.90
19781;DHT22;10050;55.492;13.506;2022-10-22T04:13:31;12.30;99.90
19781;DHT22;10050;55.492;13.506;2022-10-22T04:16:13;12.30;99.90
19781;DHT22;10050;55.492;13.506;2022-10-22T04:18:39;12.40;99.90
19781;DHT22;10050;55.492;13.506;2022-10-22T04:21:07;12.30;99.90
19781;DHT22;10050;55.492;13.506;2022-10-22T04:23:33;12.30;99.90
19781;DHT22;10050;55.492;13.506;2022-10-22T04:26:00;12.40;99.90
19781;DHT22;10050;55.492;13.506;2022-10-22T04:28:26;12.40;99.90
19781;DHT22;10050;55.492;13.506;2022-10-22T04:30:52;12.40;99.90
19781;DHT22;10050;55.492;13.506;2022-10-22T04:33:18;12.40;99.90
19781;DHT22;10050;55.492;13.506;2022-10-22T04:35:43;12.40;99.90
19781;DHT22;10050;55.492;13.506;2022-10-22T04:38:09;12.40;99.90
19781;DHT22;10050;55.492;13.506;2022-10-22T04:40:35;12.40;99.90
19781;DHT22;10050;55.492;13.506;2022-10-22T04:43:01;12.40;99.90
19781;DHT22;10050;55.492;13.506;2022-10-22T04:45:26;12.40;99.90
19781;DHT22;10050;55.492;13.506;2022-10-22T04:47:52;12.50;99.90
19781;DHT22;10050;55.492;13.506;2022-10-22T04:50:17;12.50;99.90
19781;DHT22;10050;55.492;13.506;2022-10-22T04:52:43;12.40;99.90
19781;DHT22;10050;55.492;13.506;2022-10-22T04:55:09;12.50;99.90
19781;DHT22;10050;55.492;13.506;2022-10-22T04:57:34;12.40;99.90
19781;DHT22;10050;55.492;13.506;2022-10-22T05:00:00;12.50;99.90
19781;DHT22;10050;55.492;13.506;2022-10-22T05:02:26;12.50;99.90
19781;DHT22;10050;55.492;13.506;2022-10-22T05:04:51;12.50;99.90
19781;DHT22;10050;55.492;13.506;2022-10-22T05:07:17;12.50;99.90
19781;DHT22;10050;55.492;13.506;2022-10-22T05:09:42;12.50;99.90
19781;DHT22;10050;55.492;13.506;2022-10-22T05:12:08;12.50;99.90
19781;DHT22;10050;55.492;13.506;2022-10-22T05:14:34;12.50;99.90
19781;DHT22;10050;55.492;13.506;2022-10-22T05:16:59;12.50;99.90
19781;DHT22;10050;55.492;13.506;2022-10-22T05:19:27;12.50;99.90
19781;DHT22;10050;55.492;13.506;2022-10-22T05:21:55;12.50;99.90
19781;DHT22;10050;55.492;13.506;2022-10-22T05:24:21;12.50;99.90
19781;DHT22;10050;55.492;13.506;2022-10-22T05:26:49;12.50;99.90
19781;DHT22;10050;55.492;13.506;2022-10-22T05:29:15;12.50;99.90
19781;DHT22;10050;55.492;13.506;2022-10-22T05:31:40;12.60;99.90
19781;DHT22;10050;55.492;13.506;2022-10-22T05:34:06;12.60;99.90
19781;DHT22;10050;55.492;13.506;2022-10-22T05:36:32;12.60;99.90
19781;DHT22;10050;55.492;13.506;2022-10-22T05:38:57;12.60;99.90
19781;DHT22;10050;55.492;13.506;2022-10-22T05:41:25;12.60;99.90
19781;DHT22;10050;55.492;13.506;2022-10-22T05:43:54;12.60;99.90
19781;DHT22;10050;55.492;13.506;2022-10-22T05:46:21;12.60;99.90
19781;DHT22;10050;55.492;13.506;2022-10-22T05:48:51;12.60;99.90
19781;DHT22;10050;55.492;13.506;2022-10-22T05:51:17;12.60;99.90
19781;DHT22;10050;55.492;13.506;2022-10-22T05:53:43;12.60;99.90
19781;DHT22;10050;55.492;13.506;2022-10-22T05:56:14;12.60;99.90
19781;DHT22;10050;55.492;13.506;2022-10-22T05:58:41;12.70;99.90
19781;DHT22;10050;55.492;13.506;2022-10-22T06:01:11;12.70;99.90
19781;DHT22;10050;55.492;13.506;2022-10-22T06:03:38;12.70;99.90
19781;DHT22;10050;55.492;13.506;2022-10-22T06:06:21;12.70;99.90
19781;DHT22;10050;55.492;13.506;2022-10-22T06:08:51;12.70;99.90
19781;DHT22;10050;55.492;13.506;2022-10-22T06:11:18;12.70;99.90
19781;DHT22;10050;55.492;13.506;2022-10-22T06:13:45;12.70;99.90
19781;DHT22;10050;55.492;13.506;2022-10-22T06:16:10;12.70;99.90
19781;DHT22;10050;55.492;13.506;2022-10-22T06:18:36;12.80;99.90
19781;DHT22;10050;55.492;13.506;2022-10-22T06:21:07;12.80;99.90
19781;DHT22;10050;55.492;13.506;2022-10-22T06:23:34;12.80;99.90
19781;DHT22;10050;55.492;13.506;2022-10-22T06:26:00;12.80;99.90
19781;DHT22;10050;55.492;13.506;2022-10-22T06:28:26;12.90;99.90
19781;DHT22;10050;55.492;13.506;2022-10-22T06:30:51;12.90;99.90
19781;DHT22;10050;55.492;13.506;2022-10-22T06:33:17;12.90;99.90
19781;DHT22;10050;55.492;13.506;2022-10-22T06:35:43;12.90;99.90
19781;DHT22;10050;55.492;13.506;2022-10-22T06:38:09;12.90;99.90
19781;DHT22;10050;55.492;13.506;2022-10-22T06:40:35;12.90;99.90
19781;DHT22;10050;55.492;13.506;2022-10-22T06:43:01;12.80;99.90
19781;DHT22;10050;55.492;13.506;2022-10-22T06:45:27;12.90;99.90
19781;DHT22;10050;55.492;13.506;2022-10-22T06:47:52;12.90;99.90
19781;DHT22;10050;55.492;13.506;2022-10-22T06:50:19;12.90;99.90
19781;DHT22;10050;55.492;13.506;2022-10-22T06:52:45;13.00;99.90
19781;DHT22;10050;55.492;13.506;2022-10-22T06:55:11;12.90;99.90
19781;DHT22;10050;55.492;13.506;2022-10-22T06:57:37;12.90;99.90
19781;DHT22;10050;55.492;13.506;2022-10-22T07:00:04;13.00;99.90
19781;DHT22;10050;55.492;13.506;2022-10-22T07:02:30;13.00;99.90
19781;DHT22;10050;55.492;13.506;2022-10-22T07:04:56;13.00;99.90
19781;DHT22;10050;55.492;13.506;2022-10-22T07:07:21;13.10;99.90
19781;DHT22;10050;55.492;13.506;2022-10-22T07:09:47;13.00;99.90
19781;DHT22;10050;55.492;13.506;2022-10-22T07:12:15;13.10;99.90
19781;DHT22;10050;55.492;13.506;2022-10-22T07:14:41;13.10;99.90
19781;DHT22;10050;55.492;13.506;2022-10-22T07:17:06;13.10;99.90
19781;DHT22;10050;55.492;13.506;2022-10-22T07:19:32;13.20;99.90
19781;DHT22;10050;55.492;13.506;2022-10-22T07:21:58;13.20;99.90
19781;DHT22;10050;55.492;13.506;2022-10-22T07:24:23;13.20;99.90
19781;DHT22;10050;55.492;13.506;2022-10-22T07:26:49;13.20;99.90
19781;DHT22;10050;55.492;13.506;2022-10-22T07:29:14;13.20;99.90
19781;DHT22;10050;55.492;13.506;2022-10-22T07:31:41;13.20;99.90
19781;DHT22;10050;55.492;13.506;2022-10-22T07:34:07;13.20;99.90
19781;DHT22;10050;55.492;13.506;2022-10-22T07:36:33;13.20;99.90
19781;DHT22;10050;55.492;13.506;2022-10-22T07:38:59;13.30;99.90
19781;DHT22;10050;55.492;13.506;2022-10-22T07:41:26;13.30;99.90
19781;DHT22;10050;55.492;13.506;2022-10-22T07:43:52;13.40;99.90
19781;DHT22;10050;55.492;13.506;2022-10-22T07:46:18;13.30;99.90
19781;DHT22;10050;55.492;13.506;2022-10-22T07:48:44;13.40;99.90
19781;DHT22;10050;55.492;13.506;2022-10-22T07:51:09;13.40;99.90
19781;DHT22;10050;55.492;13.506;2022-10-22T07:53:38;13.50;99.90
19781;DHT22;10050;55.492;13.506;2022-10-22T07:56:04;13.50;99.90
19781;DHT22;10050;55.492;13.506;2022-10-22T07:58:30;13.50;99.90
19781;DHT22;10050;55.492;13.506;2022-10-22T08:00:59;13.50;99.90
19781;DHT22;10050;55.492;13.506;2022-10-22T08:03:26;13.50;99.90
19781;DHT22;10050;55.492;13.506;2022-10-22T08:05:53;13.50;99.90
19781;DHT22;10050;55.492;13.506;2022-10-22T08:08:19;13.60;99.90
19781;DHT22;10050;55.492;13.506;2022-10-22T08:10:46;13.60;99.90
19781;DHT22;10050;55.492;13.506;2022-10-22T08:13:13;13.70;99.90
19781;DHT22;10050;55.492;13.506;2022-10-22T08:15:39;13.70;99.90
19781;DHT22;10050;55.492;13.506;2022-10-22T08:18:05;13.70;99.90
19781;DHT22;10050;55.492;13.506;2022-10-22T08:20:31;13.80;99.90
19781;DHT22;10050;55.492;13.506;2022-10-22T08:22:57;13.80;99.90
19781;DHT22;10050;55.492;13.506;2022-10-22T08:25:24;13.70;99.90
19781;DHT22;10050;55.492;13.506;2022-10-22T08:27:49;13.70;99.90
19781;DHT22;10050;55.492;13.506;2022-10-22T08:30:15;13.80;99.90
19781;DHT22;10050;55.492;13.506;2022-10-22T08:32:41;13.80;99.90
19781;DHT22;10050;55.492;13.506;2022-10-22T08:35:07;13.80;99.90
19781;DHT22;10050;55.492;13.506;2022-10-22T08:37:32;13.80;99.90
19781;DHT22;10050;55.492;13.506;2022-10-22T08:39:58;13.90;99.90
19781;DHT22;10050;55.492;13.506;2022-10-22T08:45:27;13.90;99.90
19781;DHT22;10050;55.492;13.506;2022-10-22T08:48:17;14.00;99.90
19781;DHT22;10050;55.492;13.506;2022-10-22T08:50:49;14.00;99.90
19781;DHT22;10050;55.492;13.506;2022-10-22T08:53:20;14.00;99.90
19781;DHT22;10050;55.492;13.506;2022-10-22T08:55:47;14.10;99.90
19781;DHT22;10050;55.492;13.506;2022-10-22T08:58:35;14.20;99.90
19781;DHT22;10050;55.492;13.506;2022-10-22T09:06:31;14.10;99.90
19781;DHT22;10050;55.492;13.506;2022-10-22T09:08:58;14.10;99.90
19781;DHT22;10050;55.492;13.506;2022-10-22T09:11:35;14.10;99.90
19781;DHT22;10050;55.492;13.506;2022-10-22T09:14:01;14.20;99.90
19781;DHT22;10050;55.492;13.506;2022-10-22T09:24:45;14.10;99.90
19781;DHT22;10050;55.492;13.506;2022-10-22T09:27:17;14.10;99.90
19781;DHT22;10050;55.492;13.506;2022-10-22T09:29:45;14.10;99.90
19781;DHT22;10050;55.492;13.506;2022-10-22T09:32:12;14.20;99.90
19781;DHT22;10050;55.492;13.506;2022-10-22T09:34:37;14.20;99.90
19781;DHT22;10050;55.492;13.506;2022-10-22T09:37:06;14.20;99.90
19781;DHT22;10050;55.492;13.506;2022-10-22T09:39:36;14.30;99.90
19781;DHT22;10050;55.492;13.506;2022-10-22T09:42:02;14.30;99.90
19781;DHT22;10050;55.492;13.506;2022-10-22T09:44:32;14.40;99.90
19781;DHT22;10050;55.492;13.506;2022-10-22T09:47:02;14.40;99.90
19781;DHT22;10050;55.492;13.506;2022-10-22T09:49:29;14.40;99.90
19781;DHT22;10050;55.492;13.506;2022-10-22T09:51:59;14.40;99.90
19781;DHT22;10050;55.492;13.506;2022-10-22T09:54:38;14.40;99.90
19781;DHT22;10050;55.492;13.506;2022-10-22T09:57:13;14.50;99.90
19781;DHT22;10050;55.492;13.506;2022-10-22T09:59:56;14.50;99.90
19781;DHT22;10050;55.492;13.506;2022-10-22T10:02:42;14.50;99.90
19781;DHT22;10050;55.492;13.506;2022-10-22T10:05:13;14.60;99.90
19781;DHT22;10050;55.492;13.506;2022-10-22T10:07:44;14.60;99.90
19781;DHT22;10050;55.492;13.506;2022-10-22T10:10:40;14.60;99.90
19781;DHT22;10050;55.492;13.506;2022-10-22T10:27:26;14.90;99.90
19781;DHT22;10050;55.492;13.506;2022-10-22T10:30:14;14.90;99.90
19781;DHT22;10050;55.492;13.506;2022-10-22T10:35:42;14.90;99.90
19781;DHT22;10050;55.492;13.506;2022-10-22T10:41:27;14.80;99.90
19781;DHT22;10050;55.492;13.506;2022-10-22T10:49:09;14.80;99.90
19781;DHT22;10050;55.492;13.506;2022-10-22T10:51:48;14.90;99.90
19781;DHT22;10050;55.492;13.506;2022-10-22T10:56:59;14.90;99.90
19781;DHT22;10050;55.492;13.506;2022-10-22T11:08:10;14.90;99.90
19781;DHT22;10050;55.492;13.506;2022-10-22T11:10:53;15.10;99.90
19781;DHT22;10050;55.492;13.506;2022-10-22T11:18:41;15.00;99.90
19781;DHT22;10050;55.492;13.506;2022-10-22T11:26:24;14.90;99.90
19781;DHT22;10050;55.492;13.506;2022-10-22T11:28:52;14.80;99.90
19781;DHT22;10050;55.492;13.506;2022-10-22T11:31:19;14.80;99.90
19781;DHT22;10050;55.492;13.506;2022-10-22T11:36:18;14.80;99.90
19781;DHT22;10050;55.492;13.506;2022-10-22T11:38:45;14.80;99.90
19781;DHT22;10050;55.492;13.506;2022-10-22T11:41:16;14.80;99.90
19781;DHT22;10050;55.492;13.506;2022-10-22T11:44:00;14.80;99.90
19781;DHT22;10050;55.492;13.506;2022-10-22T11:49:22;14.80;99.90
19781;DHT22;10050;55.492;13.506;2022-10-22T11:51:48;14.90;99.90
19781;DHT22;10050;55.492;13.506;2022-10-22T11:57:17;14.80;99.90
19781;DHT22;10050;55.492;13.506;2022-10-22T12:02:38;14.80;99.90
19781;DHT22;10050;55.492;13.506;2022-10-22T12:07:55;14.70;99.90
19781;DHT22;10050;55.492;13.506;2022-10-22T12:10:26;14.70;99.90
19781;DHT22;10050;55.492;13.506;2022-10-22T12:13:02;14.80;99.90
19781;DHT22;10050;55.492;13.506;2022-10-22T12:15:32;14.70;99.90
19781;DHT22;10050;55.492;13.506;2022-10-22T12:18:04;14.60;99.90
19781;DHT22;10050;55.492;13.506;2022-10-22T12:20:30;14.60;99.90
19781;DHT22;10050;55.492;13.506;2022-10-22T12:22:57;14.60;99.90
19781;DHT22;10050;55.492;13.506;2022-10-22T12:25:28;14.50;99.90
19781;DHT22;10050;55.492;13.506;2022-10-22T12:27:59;14.50;99.90
19781;DHT22;10050;55.492;13.506;2022-10-22T12:30:30;14.50;99.90
19781;DHT22;10050;55.492;13.506;2022-10-22T12:33:01;14.50;99.90
19781;DHT22;10050;55.492;13.506;2022-10-22T12:35:42;14.40;99.90
19781;DHT22;10050;55.492;13.506;2022-10-22T12:38:16;14.40;99.90
19781;DHT22;10050;55.492;13.506;2022-10-22T12:40:43;14.50;99.90
19781;DHT22;10050;55.492;13.506;2022-10-22T12:43:16;14.50;99.90
19781;DHT22;10050;55.492;13.506;2022-10-22T12:45:43;14.50;99.90
19781;DHT22;10050;55.492;13.506;2022-10-22T12:48:27;14.50;99.90
19781;DHT22;10050;55.492;13.506;2022-10-22T12:50:57;14.50;99.90
19781;DHT22;10050;55.492;13.506;2022-10-22T12:53:36;14.40;99.90
19781;DHT22;10050;55.492;13.506;2022-10-22T12:56:06;14.40;99.90
19781;DHT22;10050;55.492;13.506;2022-10-22T12:58:47;14.40;99.90
19781;DHT22;10050;55.492;13.506;2022-10-22T13:01:15;14.40;99.90
19781;DHT22;10050;55.492;13.506;2022-10-22T13:03:50;14.40;99.90
19781;DHT22;10050;55.492;13.506;2022-10-22T13:06:27;14.30;99.90
19781;DHT22;10050;55.492;13.506;2022-10-22T13:11:33;14.40;99.90
19781;DHT22;10050;55.492;13.506;2022-10-22T13:14:03;14.40;99.90
19781;DHT22;10050;55.492;13.506;2022-10-22T13:16:30;14.40;99.90
19781;DHT22;10050;55.492;13.506;2022-10-22T13:18:56;14.40;99.90
19781;DHT22;10050;55.492;13.506;2022-10-22T13:21:27;14.50;99.90
19781;DHT22;10050;55.492;13.506;2022-10-22T13:23:58;14.50;99.90
19781;DHT22;10050;55.492;13.506;2022-10-22T13:26:34;14.50;99.90
19781;DHT22;10050;55.492;13.506;2022-10-22T13:29:00;14.40;99.90
19781;DHT22;10050;55.492;13.506;2022-10-22T13:31:29;14.40;99.90
19781;DHT22;10050;55.492;13.506;2022-10-22T13:34:02;14.40;99.90
19781;DHT22;10050;55.492;13.506;2022-10-22T13:36:31;14.40;99.90
19781;DHT22;10050;55.492;13.506;2022-10-22T13:38:57;14.30;99.90
19781;DHT22;10050;55.492;13.506;2022-10-22T13:41:25;14.30;99.90
19781;DHT22;10050;55.492;13.506;2022-10-22T13:43:52;14.30;99.90
19781;DHT22;10050;55.492;13.506;2022-10-22T13:46:18;14.30;99.90
19781;DHT22;10050;55.492;13.506;2022-10-22T13:48:45;14.30;99.90
19781;DHT22;10050;55.492;13.506;2022-10-22T13:51:14;14.30;99.90
19781;DHT22;10050;55.492;13.506;2022-10-22T13:53:41;14.20;99.90
19781;DHT22;10050;55.492;13.506;2022-10-22T13:56:12;14.30;99.90
19781;DHT22;10050;55.492;13.506;2022-10-22T13:58:40;14.30;99.90
19781;DHT22;10050;55.492;13.506;2022-10-22T14:01:19;14.30;99.90
19781;DHT22;10050;55.492;13.506;2022-10-22T14:03:46;14.30;99.90
19781;DHT22;10050;55.492;13.506;2022-10-22T14:06:14;14.30;99.90
19781;DHT22;10050;55.492;13.506;2022-10-22T14:08:42;14.30;99.90
19781;DHT22;10050;55.492;13.506;2022-10-22T14:11:10;14.30;99.90
19781;DHT22;10050;55.492;13.506;2022-10-22T14:13:36;14.30;99.90
19781;DHT22;10050;55.492;13.506;2022-10-22T14:16:04;14.30;99.90
19781;DHT22;10050;55.492;13.506;2022-10-22T14:18:30;14.30;99.90
19781;DHT22;10050;55.492;13.506;2022-10-22T14:21:00;14.30;99.90
19781;DHT22;10050;55.492;13.506;2022-10-22T14:23:30;14.30;99.90
19781;DHT22;10050;55.492;13.506;2022-10-22T14:25:56;14.30;99.90
19781;DHT22;10050;55.492;13.506;2022-10-22T14:28:22;14.30;99.90
19781;DHT22;10050;55.492;13.506;2022-10-22T14:30:48;14.40;99.90
19781;DHT22;10050;55.492;13.506;2022-10-22T14:33:17;14.30;99.90
19781;DHT22;10050;55.492;13.506;2022-10-22T14:35:43;14.30;99.90
19781;DHT22;10050;55.492;13.506;2022-10-22T14:38:09;14.30;99.90
19781;DHT22;10050;55.492;13.506;2022-10-22T14:40:35;14.30;99.90
19781;DHT22;10050;55.492;13.506;2022-10-22T14:43:03;14.40;99.90
19781;DHT22;10050;55.492;13.506;2022-10-22T14:45:30;14.30;99.90
19781;DHT22;10050;55.492;13.506;2022-10-22T14:47:55;14.30;99.90
19781;DHT22;10050;55.492;13.506;2022-10-22T14:50:23;14.30;99.90
19781;DHT22;10050;55.492;13.506;2022-10-22T14:52:49;14.30;99.90
19781;DHT22;10050;55.492;13.506;2022-10-22T14:55:16;14.30;99.90
19781;DHT22;10050;55.492;13.506;2022-10-22T14:57:42;14.30;99.90
19781;DHT22;10050;55.492;13.506;2022-10-22T15:00:12;14.30;99.90
19781;DHT22;10050;55.492;13.506;2022-10-22T15:02:38;14.40;99.90
19781;DHT22;10050;55.492;13.506;2022-10-22T15:05:04;14.50;99.90
19781;DHT22;10050;55.492;13.506;2022-10-22T15:07:30;14.40;99.90
19781;DHT22;10050;55.492;13.506;2022-10-22T15:09:56;14.40;99.90
19781;DHT22;10050;55.492;13.506;2022-10-22T15:12:22;14.40;99.90
19781;DHT22;10050;55.492;13.506;2022-10-22T15:14:47;14.50;99.90
19781;DHT22;10050;55.492;13.506;2022-10-22T15:17:14;14.50;99.90
19781;DHT22;10050;55.492;13.506;2022-10-22T15:19:40;14.50;99.90
19781;DHT22;10050;55.492;13.506;2022-10-22T15:22:06;14.40;99.90
19781;DHT22;10050;55.492;13.506;2022-10-22T15:24:32;14.40;99.90
19781;DHT22;10050;55.492;13.506;2022-10-22T15:26:57;14.40;99.90
19781;DHT22;10050;55.492;13.506;2022-10-22T15:29:23;14.40;99.90
19781;DHT22;10050;55.492;13.506;2022-10-22T15:31:54;14.40;99.90
19781;DHT22;10050;55.492;13.506;2022-10-22T15:34:32;14.30;99.90
19781;DHT22;10050;55.492;13.506;2022-10-22T15:37:00;14.20;99.90
19781;DHT22;10050;55.492;13.506;2022-10-22T15:39:26;14.10;99.90
19781;DHT22;10050;55.492;13.506;2022-10-22T15:41:53;14.00;99.90
19781;DHT22;10050;55.492;13.506;2022-10-22T15:44:30;14.00;99.90
19781;DHT22;10050;55.492;13.506;2022-10-22T15:46:56;13.90;99.90
19781;DHT22;10050;55.492;13.506;2022-10-22T15:49:23;13.90;99.90
19781;DHT22;10050;55.492;13.506;2022-10-22T15:51:50;13.90;99.90
19781;DHT22;10050;55.492;13.506;2022-10-22T15:54:21;13.90;99.90
19781;DHT22;10050;55.492;13.506;2022-10-22T15:56:47;13.80;99.90
19781;DHT22;10050;55.492;13.506;2022-10-22T15:59:14;13.80;99.90
19781;DHT22;10050;55.492;13.506;2022-10-22T16:01:41;13.80;99.90
19781;DHT22;10050;55.492;13.506;2022-10-22T16:04:07;13.70;99.90
19781;DHT22;10050;55.492;13.506;2022-10-22T16:06:45;13.70;99.90
19781;DHT22;10050;55.492;13.506;2022-10-22T16:09:14;13.70;99.90
19781;DHT22;10050;55.492;13.506;2022-10-22T16:11:40;13.60;99.90
19781;DHT22;10050;55.492;13.506;2022-10-22T16:14:07;13.60;99.90
19781;DHT22;10050;55.492;13.506;2022-10-22T16:16:35;13.50;99.90
19781;DHT22;10050;55.492;13.506;2022-10-22T16:19:01;13.40;99.90
19781;DHT22;10050;55.492;13.506;2022-10-22T16:21:27;13.40;99.90
19781;DHT22;10050;55.492;13.506;2022-10-22T16:23:53;13.40;99.90
19781;DHT22;10050;55.492;13.506;2022-10-22T16:26:19;13.20;99.90
19781;DHT22;10050;55.492;13.506;2022-10-22T16:28:46;13.20;99.90
19781;DHT22;10050;55.492;13.506;2022-10-22T16:31:14;13.10;99.90
19781;DHT22;10050;55.492;13.506;2022-10-22T16:33:40;13.10;99.90
19781;DHT22;10050;55.492;13.506;2022-10-22T16:36:08;13.00;99.90
19781;DHT22;10050;55.492;13.506;2022-10-22T16:38:35;13.00;99.90
19781;DHT22;10050;55.492;13.506;2022-10-22T16:41:10;13.00;99.90
19781;DHT22;10050;55.492;13.506;2022-10-22T16:43:37;12.90;99.90
19781;DHT22;10050;55.492;13.506;2022-10-22T16:46:02;12.90;99.90
19781;DHT22;10050;55.492;13.506;2022-10-22T16:48:28;12.90;99.90
19781;DHT22;10050;55.492;13.506;2022-10-22T16:50:54;12.90;99.90
19781;DHT22;10050;55.492;13.506;2022-10-22T16:53:20;12.90;99.90
19781;DHT22;10050;55.492;13.506;2022-10-22T16:55:45;12.90;99.90
19781;DHT22;10050;55.492;13.506;2022-10-22T16:58:11;12.90;99.90
19781;DHT22;10050;55.492;13.506;2022-10-22T17:00:36;12.90;99.90
19781;DHT22;10050;55.492;13.506;2022-10-22T17:03:02;13.00;99.90
19781;DHT22;10050;55.492;13.506;2022-10-22T17:05:28;13.00;99.90
19781;DHT22;10050;55.492;13.506;2022-10-22T17:07:53;13.10;99.90